sensor_id;sensor_type;location;lat;lon;timestamp;P1;durP1;ratioP1;P2;durP2;ratioP2
19364;SDS011;9818;48.382;10.850;2023-05-09T00:01:22;9.90;;;8.47;;
19364;SDS011;9818;48.382;10.850;2023-05-09T00:03:54;9.67;;;8.00;;
19364;SDS011;9818;48.382;10.850;2023-05-09T00:06:22;10.93;;;8.57;;
19364;SDS011;9818;48.382;10.850;2023-05-09T00:08:51;10.67;;;9.03;;
19364;SDS011;9818;48.382;10.850;2023-05-09T00:11:20;11.70;;;9.37;;
19364;SDS011;9818;48.382;10.850;2023-05-09T00:13:49;11.37;;;9.07;;
19364;SDS011;9818;48.382;10.850;2023-05-09T00:16:21;11.00;;;9.17;;
19364;SDS011;9818;48.382;10.850;2023-05-09T00:18:50;11.10;;;9.20;;
19364;SDS011;9818;48.382;10.850;2023-05-09T00:21:20;11.03;;;9.13;;
19364;SDS011;9818;48.382;10.850;2023-05-09T00:23:48;11.67;;;9.70;;
19364;SDS011;9818;48.382;10.850;2023-05-09T00:26:17;11.00;;;9.20;;
19364;SDS011;9818;48.382;10.850;2023-05-09T00:28:46;10.87;;;9.43;;
19364;SDS011;9818;48.382;10.850;2023-05-09T00:31:19;10.53;;;8.90;;
19364;SDS011;9818;48.382;10.850;2023-05-09T00:33:48;10.70;;;8.70;;
19364;SDS011;9818;48.382;10.850;2023-05-09T00:36:16;10.80;;;9.13;;
19364;SDS011;9818;48.382;10.850;2023-05-09T00:38:45;10.30;;;8.80;;
19364;SDS011;9818;48.382;10.850;2023-05-09T00:41:14;10.93;;;9.30;;
19364;SDS011;9818;48.382;10.850;2023-05-09T00:43:42;12.53;;;9.63;;
19364;SDS011;9818;48.382;10.850;2023-05-09T00:46:11;10.83;;;9.67;;
19364;SDS011;9818;48.382;10.850;2023-05-09T00:48:42;11.13;;;9.00;;
19364;SDS011;9818;48.382;10.850;2023-05-09T00:51:11;11.43;;;9.43;;
19364;SDS011;9818;48.382;10.850;2023-05-09T00:53:40;12.33;;;9.97;;
19364;SDS011;9818;48.382;10.850;2023-05-09T00:56:08;10.27;;;8.90;;
19364;SDS011;9818;48.382;10.850;2023-05-09T00:58:38;10.40;;;8.93;;
19364;SDS011;9818;48.382;10.850;2023-05-09T01:01:07;11.47;;;9.53;;
19364;SDS011;9818;48.382;10.850;2023-05-09T01:03:37;11.00;;;9.57;;
19364;SDS011;9818;48.382;10.850;2023-05-09T01:06:10;11.80;;;9.87;;
19364;SDS011;9818;48.382;10.850;2023-05-09T01:08:46;10.47;;;8.93;;
19364;SDS011;9818;48.382;10.850;2023-05-09T01:11:25;12.37;;;9.90;;
19364;SDS011;9818;48.382;10.850;2023-05-09T01:14:02;10.70;;;9.27;;
19364;SDS011;9818;48.382;10.850;2023-05-09T01:16:40;11.27;;;8.97;;
19364;SDS011;9818;48.382;10.850;2023-05-09T01:19:24;11.37;;;9.67;;
19364;SDS011;9818;48.382;10.850;2023-05-09T01:22:06;10.97;;;9.17;;
19364;SDS011;9818;48.382;10.850;2023-05-09T01:24:42;10.23;;;8.93;;
19364;SDS011;9818;48.382;10.850;2023-05-09T01:27:32;11.40;;;9.17;;
19364;SDS011;9818;48.382;10.850;2023-05-09T01:30:11;10.47;;;9.07;;
19364;SDS011;9818;48.382;10.850;2023-05-09T01:32:41;10.80;;;9.53;;
19364;SDS011;9818;48.382;10.850;2023-05-09T01:35:14;10.73;;;8.93;;
19364;SDS011;9818;48.382;10.850;2023-05-09T01:37:44;11.33;;;9.43;;
19364;SDS011;9818;48.382;10.850;2023-05-09T01:40:16;11.40;;;9.37;;
19364;SDS011;9818;48.382;10.850;2023-05-09T01:42:48;12.93;;;9.20;;
19364;SDS011;9818;48.382;10.850;2023-05-09T01:45:22;10.60;;;8.57;;
19364;SDS011;9818;48.382;10.850;2023-05-09T01:47:51;10.93;;;8.60;;
19364;SDS011;9818;48.382;10.850;2023-05-09T01:50:21;11.00;;;9.30;;
19364;SDS011;9818;48.382;10.850;2023-05-09T01:52:51;10.43;;;9.30;;
19364;SDS011;9818;48.382;10.850;2023-05-09T01:55:23;10.60;;;9.47;;
19364;SDS011;9818;48.382;10.850;2023-05-09T01:57:53;11.87;;;9.30;;
19364;SDS011;9818;48.382;10.850;2023-05-09T02:00:26;10.80;;;8.97;;
19364;SDS011;9818;48.382;10.850;2023-05-09T02:02:55;9.60;;;8.57;;
19364;SDS011;9818;48.382;10.850;2023-05-09T02:05:26;11.50;;;9.87;;
19364;SDS011;9818;48.382;10.850;2023-05-09T02:07:56;10.57;;;8.83;;
19364;SDS011;9818;48.382;10.850;2023-05-09T02:10:25;11.90;;;9.67;;
19364;SDS011;9818;48.382;10.850;2023-05-09T02:12:55;11.23;;;8.83;;
19364;SDS011;9818;48.382;10.850;2023-05-09T02:15:26;11.07;;;9.40;;
19364;SDS011;9818;48.382;10.850;2023-05-09T02:17:57;11.80;;;9.43;;
19364;SDS011;9818;48.382;10.850;2023-05-09T02:20:25;9.97;;;8.57;;
19364;SDS011;9818;48.382;10.850;2023-05-09T02:22:54;11.00;;;9.13;;
19364;SDS011;9818;48.382;10.850;2023-05-09T02:25:23;12.20;;;9.80;;
19364;SDS011;9818;48.382;10.850;2023-05-09T02:27:51;9.80;;;8.80;;
19364;SDS011;9818;48.382;10.850;2023-05-09T02:30:22;11.07;;;9.53;;
19364;SDS011;9818;48.382;10.850;2023-05-09T02:32:58;11.27;;;8.97;;
19364;SDS011;9818;48.382;10.850;2023-05-09T02:35:30;10.43;;;9.23;;
19364;SDS011;9818;48.382;10.850;2023-05-09T02:37:59;10.40;;;8.73;;
19364;SDS011;9818;48.382;10.850;2023-05-09T02:40:28;11.90;;;9.40;;
19364;SDS011;9818;48.382;10.850;2023-05-09T02:42:57;11.33;;;9.30;;
19364;SDS011;9818;48.382;10.850;2023-05-09T02:45:28;12.23;;;9.50;;
19364;SDS011;9818;48.382;10.850;2023-05-09T02:47:58;12.60;;;9.93;;
19364;SDS011;9818;48.382;10.850;2023-05-09T02:50:27;11.90;;;9.87;;
19364;SDS011;9818;48.382;10.850;2023-05-09T02:52:55;12.20;;;9.70;;
19364;SDS011;9818;48.382;10.850;2023-05-09T02:55:24;10.67;;;8.97;;
19364;SDS011;9818;48.382;10.850;2023-05-09T02:57:53;10.20;;;8.97;;
19364;SDS011;9818;48.382;10.850;2023-05-09T03:00:21;12.40;;;9.67;;
19364;SDS011;9818;48.382;10.850;2023-05-09T03:02:53;9.23;;;8.23;;
19364;SDS011;9818;48.382;10.850;2023-05-09T03:05:21;11.00;;;9.20;;
19364;SDS011;9818;48.382;10.850;2023-05-09T03:07:50;12.73;;;10.83;;
19364;SDS011;9818;48.382;10.850;2023-05-09T03:10:19;11.90;;;9.87;;
19364;SDS011;9818;48.382;10.850;2023-05-09T03:12:47;12.40;;;10.07;;
19364;SDS011;9818;48.382;10.850;2023-05-09T03:15:16;11.10;;;9.47;;
19364;SDS011;9818;48.382;10.850;2023-05-09T03:17:45;12.20;;;9.73;;
19364;SDS011;9818;48.382;10.850;2023-05-09T03:20:16;11.67;;;9.83;;
19364;SDS011;9818;48.382;10.850;2023-05-09T03:22:45;12.00;;;9.93;;
19364;SDS011;9818;48.382;10.850;2023-05-09T03:25:14;11.50;;;9.10;;
19364;SDS011;9818;48.382;10.850;2023-05-09T03:27:42;10.80;;;8.63;;
19364;SDS011;9818;48.382;10.850;2023-05-09T03:30:12;11.83;;;9.27;;
19364;SDS011;9818;48.382;10.850;2023-05-09T03:32:41;12.10;;;9.93;;
19364;SDS011;9818;48.382;10.850;2023-05-09T03:35:10;11.83;;;9.20;;
19364;SDS011;9818;48.382;10.850;2023-05-09T03:37:41;11.63;;;9.83;;
19364;SDS011;9818;48.382;10.850;2023-05-09T03:40:10;11.40;;;9.63;;
19364;SDS011;9818;48.382;10.850;2023-05-09T03:42:39;10.60;;;9.23;;
19364;SDS011;9818;48.382;10.850;2023-05-09T03:45:08;10.73;;;9.03;;
19364;SDS011;9818;48.382;10.850;2023-05-09T03:47:37;12.60;;;9.73;;
19364;SDS011;9818;48.382;10.850;2023-05-09T03:50:07;10.97;;;9.10;;
19364;SDS011;9818;48.382;10.850;2023-05-09T03:52:36;11.77;;;9.63;;
19364;SDS011;9818;48.382;10.850;2023-05-09T03:55:08;12.07;;;10.00;;
19364;SDS011;9818;48.382;10.850;2023-05-09T03:57:37;11.03;;;9.40;;
19364;SDS011;9818;48.382;10.850;2023-05-09T04:00:06;11.13;;;9.37;;
19364;SDS011;9818;48.382;10.850;2023-05-09T04:02:36;13.23;;;9.83;;
19364;SDS011;9818;48.382;10.850;2023-05-09T04:05:05;11.70;;;9.53;;
19364;SDS011;9818;48.382;10.850;2023-05-09T04:07:34;12.80;;;9.90;;
19364;SDS011;9818;48.382;10.850;2023-05-09T04:10:03;11.80;;;9.67;;
19364;SDS011;9818;48.382;10.850;2023-05-09T04:12:35;11.93;;;9.77;;
19364;SDS011;9818;48.382;10.850;2023-05-09T04:15:05;12.77;;;10.20;;
19364;SDS011;9818;48.382;10.850;2023-05-09T04:17:35;11.67;;;9.90;;
19364;SDS011;9818;48.382;10.850;2023-05-09T04:20:04;12.33;;;10.23;;
19364;SDS011;9818;48.382;10.850;2023-05-09T04:22:34;12.23;;;9.90;;
19364;SDS011;9818;48.382;10.850;2023-05-09T04:25:03;12.03;;;9.80;;
19364;SDS011;9818;48.382;10.850;2023-05-09T04:27:39;12.73;;;10.07;;
19364;SDS011;9818;48.382;10.850;2023-05-09T04:30:08;11.67;;;9.70;;
19364;SDS011;9818;48.382;10.850;2023-05-09T04:32:37;13.57;;;10.37;;
19364;SDS011;9818;48.382;10.850;2023-05-09T04:35:09;12.27;;;9.93;;
19364;SDS011;9818;48.382;10.850;2023-05-09T04:37:38;13.20;;;10.10;;
19364;SDS011;9818;48.382;10.850;2023-05-09T04:40:08;11.90;;;10.07;;
19364;SDS011;9818;48.382;10.850;2023-05-09T04:42:40;12.67;;;10.60;;
19364;SDS011;9818;48.382;10.850;2023-05-09T04:45:09;13.57;;;10.57;;
19364;SDS011;9818;48.382;10.850;2023-05-09T04:47:39;11.47;;;9.63;;
19364;SDS011;9818;48.382;10.850;2023-05-09T04:50:08;12.37;;;9.50;;
19364;SDS011;9818;48.382;10.850;2023-05-09T04:52:37;11.30;;;9.53;;
19364;SDS011;9818;48.382;10.850;2023-05-09T04:55:06;11.60;;;9.93;;
19364;SDS011;9818;48.382;10.850;2023-05-09T04:57:35;12.27;;;9.90;;
19364;SDS011;9818;48.382;10.850;2023-05-09T05:00:07;11.80;;;9.77;;
19364;SDS011;9818;48.382;10.850;2023-05-09T05:02:37;11.23;;;9.40;;
19364;SDS011;9818;48.382;10.850;2023-05-09T05:05:06;12.07;;;9.53;;
19364;SDS011;9818;48.382;10.850;2023-05-09T05:07:36;12.37;;;9.70;;
19364;SDS011;9818;48.382;10.850;2023-05-09T05:10:05;11.27;;;9.73;;
19364;SDS011;9818;48.382;10.850;2023-05-09T05:12:34;11.93;;;9.53;;
19364;SDS011;9818;48.382;10.850;2023-05-09T05:15:03;12.70;;;10.37;;
19364;SDS011;9818;48.382;10.850;2023-05-09T05:17:36;11.83;;;9.87;;
19364;SDS011;9818;48.382;10.850;2023-05-09T05:20:05;11.57;;;10.30;;
19364;SDS011;9818;48.382;10.850;2023-05-09T05:22:34;12.73;;;10.63;;
19364;SDS011;9818;48.382;10.850;2023-05-09T05:25:03;12.50;;;10.23;;
19364;SDS011;9818;48.382;10.850;2023-05-09T05:27:33;10.90;;;9.37;;
19364;SDS011;9818;48.382;10.850;2023-05-09T05:30:02;11.83;;;9.20;;
19364;SDS011;9818;48.382;10.850;2023-05-09T05:32:34;13.60;;;10.73;;
19364;SDS011;9818;48.382;10.850;2023-05-09T05:35:03;11.67;;;10.03;;
19364;SDS011;9818;48.382;10.850;2023-05-09T05:37:32;12.03;;;9.37;;
19364;SDS011;9818;48.382;10.850;2023-05-09T05:40:00;11.30;;;9.87;;
19364;SDS011;9818;48.382;10.850;2023-05-09T05:42:29;12.90;;;9.60;;
19364;SDS011;9818;48.382;10.850;2023-05-09T05:44:58;12.17;;;9.70;;
19364;SDS011;9818;48.382;10.850;2023-05-09T05:47:29;10.07;;;8.73;;
19364;SDS011;9818;48.382;10.850;2023-05-09T05:50:01;11.63;;;9.97;;
19364;SDS011;9818;48.382;10.850;2023-05-09T05:52:35;12.90;;;9.53;;
19364;SDS011;9818;48.382;10.850;2023-05-09T05:55:04;11.40;;;9.63;;
19364;SDS011;9818;48.382;10.850;2023-05-09T05:57:34;11.93;;;9.90;;
19364;SDS011;9818;48.382;10.850;2023-05-09T06:00:03;10.97;;;9.27;;
19364;SDS011;9818;48.382;10.850;2023-05-09T06:02:34;11.00;;;9.37;;
19364;SDS011;9818;48.382;10.850;2023-05-09T06:05:06;11.73;;;10.00;;
19364;SDS011;9818;48.382;10.850;2023-05-09T06:07:35;11.90;;;9.63;;
19364;SDS011;9818;48.382;10.850;2023-05-09T06:10:05;12.83;;;10.40;;
19364;SDS011;9818;48.382;10.850;2023-05-09T06:12:35;11.23;;;9.67;;
19364;SDS011;9818;48.382;10.850;2023-05-09T06:15:04;11.43;;;9.97;;
19364;SDS011;9818;48.382;10.850;2023-05-09T06:17:33;11.87;;;9.73;;
19364;SDS011;9818;48.382;10.850;2023-05-09T06:20:02;13.57;;;9.87;;
19364;SDS011;9818;48.382;10.850;2023-05-09T06:22:34;12.20;;;9.57;;
19364;SDS011;9818;48.382;10.850;2023-05-09T06:25:03;11.27;;;9.53;;
19364;SDS011;9818;48.382;10.850;2023-05-09T06:27:32;12.30;;;9.57;;
19364;SDS011;9818;48.382;10.850;2023-05-09T06:30:01;9.87;;;8.67;;
19364;SDS011;9818;48.382;10.850;2023-05-09T06:32:29;11.83;;;9.47;;
19364;SDS011;9818;48.382;10.850;2023-05-09T06:34:58;10.67;;;9.00;;
19364;SDS011;9818;48.382;10.850;2023-05-09T06:37:29;12.87;;;9.63;;
19364;SDS011;9818;48.382;10.850;2023-05-09T06:40:00;12.40;;;10.07;;
19364;SDS011;9818;48.382;10.850;2023-05-09T06:42:28;12.47;;;9.73;;
19364;SDS011;9818;48.382;10.850;2023-05-09T06:44:57;10.77;;;9.20;;
19364;SDS011;9818;48.382;10.850;2023-05-09T06:47:26;11.13;;;9.00;;
19364;SDS011;9818;48.382;10.850;2023-05-09T06:49:55;10.50;;;9.40;;
19364;SDS011;9818;48.382;10.850;2023-05-09T06:52:23;10.93;;;8.90;;
19364;SDS011;9818;48.382;10.850;2023-05-09T06:54:54;12.07;;;8.97;;
19364;SDS011;9818;48.382;10.850;2023-05-09T06:57:23;11.27;;;9.23;;
19364;SDS011;9818;48.382;10.850;2023-05-09T06:59:52;10.97;;;8.80;;
19364;SDS011;9818;48.382;10.850;2023-05-09T07:02:20;9.43;;;8.37;;
19364;SDS011;9818;48.382;10.850;2023-05-09T07:04:49;10.57;;;8.63;;
19364;SDS011;9818;48.382;10.850;2023-05-09T07:07:18;10.33;;;8.30;;
19364;SDS011;9818;48.382;10.850;2023-05-09T07:09:47;10.73;;;8.93;;
19364;SDS011;9818;48.382;10.850;2023-05-09T07:12:18;9.37;;;8.37;;
19364;SDS011;9818;48.382;10.850;2023-05-09T07:14:47;10.13;;;9.03;;
19364;SDS011;9818;48.382;10.850;2023-05-09T07:17:15;9.90;;;8.77;;
19364;SDS011;9818;48.382;10.850;2023-05-09T07:19:44;11.20;;;9.30;;
19364;SDS011;9818;48.382;10.850;2023-05-09T07:22:13;9.87;;;8.57;;
19364;SDS011;9818;48.382;10.850;2023-05-09T07:24:41;10.73;;;9.07;;
19364;SDS011;9818;48.382;10.850;2023-05-09T07:27:10;10.80;;;8.70;;
19364;SDS011;9818;48.382;10.850;2023-05-09T07:29:41;12.10;;;8.73;;
19364;SDS011;9818;48.382;10.850;2023-05-09T07:32:10;9.97;;;8.57;;
19364;SDS011;9818;48.382;10.850;2023-05-09T07:34:39;9.47;;;8.47;;
19364;SDS011;9818;48.382;10.850;2023-05-09T07:37:07;9.40;;;8.40;;
19364;SDS011;9818;48.382;10.850;2023-05-09T07:39:36;9.60;;;7.57;;
19364;SDS011;9818;48.382;10.850;2023-05-09T07:42:05;9.73;;;8.67;;
19364;SDS011;9818;48.382;10.850;2023-05-09T07:44:33;9.00;;;7.80;;
19364;SDS011;9818;48.382;10.850;2023-05-09T07:47:05;10.50;;;8.40;;
19364;SDS011;9818;48.382;10.850;2023-05-09T07:49:33;9.83;;;8.13;;
19364;SDS011;9818;48.382;10.850;2023-05-09T07:52:04;9.60;;;8.30;;
19364;SDS011;9818;48.382;10.850;2023-05-09T07:54:33;9.53;;;7.93;;
19364;SDS011;9818;48.382;10.850;2023-05-09T07:57:01;9.00;;;7.77;;
19364;SDS011;9818;48.382;10.850;2023-05-09T07:59:30;11.13;;;8.77;;
19364;SDS011;9818;48.382;10.850;2023-05-09T08:01:58;9.60;;;8.43;;
19364;SDS011;9818;48.382;10.850;2023-05-09T08:04:30;8.67;;;7.77;;
19364;SDS011;9818;48.382;10.850;2023-05-09T08:07:01;8.67;;;7.77;;
19364;SDS011;9818;48.382;10.850;2023-05-09T08:09:31;9.77;;;8.27;;
19364;SDS011;9818;48.382;10.850;2023-05-09T08:12:00;10.50;;;8.47;;
19364;SDS011;9818;48.382;10.850;2023-05-09T08:14:28;9.00;;;7.87;;
19364;SDS011;9818;48.382;10.850;2023-05-09T08:16:57;9.57;;;8.00;;
19364;SDS011;9818;48.382;10.850;2023-05-09T08:19:25;8.57;;;7.67;;
19364;SDS011;9818;48.382;10.850;2023-05-09T08:21:57;10.00;;;7.67;;
19364;SDS011;9818;48.382;10.850;2023-05-09T08:24:25;8.87;;;7.37;;
19364;SDS011;9818;48.382;10.850;2023-05-09T08:26:55;10.23;;;8.73;;
19364;SDS011;9818;48.382;10.850;2023-05-09T08:29:24;10.10;;;7.63;;
19364;SDS011;9818;48.382;10.850;2023-05-09T08:31:53;9.77;;;8.00;;
19364;SDS011;9818;48.382;10.850;2023-05-09T08:34:22;8.87;;;7.97;;
19364;SDS011;9818;48.382;10.850;2023-05-09T08:36:51;8.83;;;7.73;;
19364;SDS011;9818;48.382;10.850;2023-05-09T08:39:22;8.37;;;7.47;;
19364;SDS011;9818;48.382;10.850;2023-05-09T08:41:51;8.70;;;7.80;;
19364;SDS011;9818;48.382;10.850;2023-05-09T08:44:24;9.53;;;8.13;;
19364;SDS011;9818;48.382;10.850;2023-05-09T08:46:54;9.17;;;7.83;;
19364;SDS011;9818;48.382;10.850;2023-05-09T08:49:26;9.13;;;7.47;;
19364;SDS011;9818;48.382;10.850;2023-05-09T08:51:55;8.43;;;7.53;;
19364;SDS011;9818;48.382;10.850;2023-05-09T08:54:26;8.83;;;7.47;;
19364;SDS011;9818;48.382;10.850;2023-05-09T08:56:56;8.57;;;7.20;;
19364;SDS011;9818;48.382;10.850;2023-05-09T08:59:25;8.57;;;7.63;;
19364;SDS011;9818;48.382;10.850;2023-05-09T09:01:55;9.47;;;8.10;;
19364;SDS011;9818;48.382;10.850;2023-05-09T09:04:24;8.07;;;7.27;;
19364;SDS011;9818;48.382;10.850;2023-05-09T09:06:53;8.83;;;7.93;;
19364;SDS011;9818;48.382;10.850;2023-05-09T09:09:22;8.23;;;7.43;;
19364;SDS011;9818;48.382;10.850;2023-05-09T09:11:54;8.83;;;7.40;;
19364;SDS011;9818;48.382;10.850;2023-05-09T09:14:23;8.80;;;7.27;;
19364;SDS011;9818;48.382;10.850;2023-05-09T09:16:53;8.13;;;7.10;;
19364;SDS011;9818;48.382;10.850;2023-05-09T09:19:25;9.90;;;7.37;;
19364;SDS011;9818;48.382;10.850;2023-05-09T09:21:58;9.77;;;7.40;;
19364;SDS011;9818;48.382;10.850;2023-05-09T09:24:29;8.80;;;7.80;;
19364;SDS011;9818;48.382;10.850;2023-05-09T09:27:03;8.70;;;7.07;;
19364;SDS011;9818;48.382;10.850;2023-05-09T09:29:33;8.07;;;6.80;;
19364;SDS011;9818;48.382;10.850;2023-05-09T09:32:03;8.30;;;6.97;;
19364;SDS011;9818;48.382;10.850;2023-05-09T09:34:33;8.43;;;7.33;;
19364;SDS011;9818;48.382;10.850;2023-05-09T09:37:02;7.93;;;7.13;;
19364;SDS011;9818;48.382;10.850;2023-05-09T09:39:33;7.47;;;6.67;;
19364;SDS011;9818;48.382;10.850;2023-05-09T09:42:13;8.17;;;7.10;;
19364;SDS011;9818;48.382;10.850;2023-05-09T09:44:42;10.03;;;6.77;;
19364;SDS011;9818;48.382;10.850;2023-05-09T09:47:11;8.10;;;7.10;;
19364;SDS011;9818;48.382;10.850;2023-05-09T09:49:40;8.97;;;7.17;;
19364;SDS011;9818;48.382;10.850;2023-05-09T09:52:15;7.40;;;6.70;;
19364;SDS011;9818;48.382;10.850;2023-05-09T09:54:51;9.03;;;6.77;;
19364;SDS011;9818;48.382;10.850;2023-05-09T09:57:34;7.57;;;6.73;;
19364;SDS011;9818;48.382;10.850;2023-05-09T10:00:06;7.33;;;6.63;;
19364;SDS011;9818;48.382;10.850;2023-05-09T10:02:44;8.57;;;7.13;;
19364;SDS011;9818;48.382;10.850;2023-05-09T10:05:21;7.60;;;6.67;;
19364;SDS011;9818;48.382;10.850;2023-05-09T10:07:52;6.90;;;6.17;;
19364;SDS011;9818;48.382;10.850;2023-05-09T10:10:25;7.63;;;6.83;;
19364;SDS011;9818;48.382;10.850;2023-05-09T10:12:57;8.17;;;7.37;;
19364;SDS011;9818;48.382;10.850;2023-05-09T10:15:27;7.97;;;7.17;;
19364;SDS011;9818;48.382;10.850;2023-05-09T10:17:57;7.33;;;6.53;;
19364;SDS011;9818;48.382;10.850;2023-05-09T10:20:28;7.50;;;6.70;;
19364;SDS011;9818;48.382;10.850;2023-05-09T10:22:58;6.77;;;6.03;;
19364;SDS011;9818;48.382;10.850;2023-05-09T10:25:32;7.00;;;6.27;;
19364;SDS011;9818;48.382;10.850;2023-05-09T10:28:10;7.10;;;6.40;;
19364;SDS011;9818;48.382;10.850;2023-05-09T10:30:42;7.37;;;6.13;;
19364;SDS011;9818;48.382;10.850;2023-05-09T10:33:17;7.37;;;6.47;;
19364;SDS011;9818;48.382;10.850;2023-05-09T10:35:52;6.93;;;6.23;;
19364;SDS011;9818;48.382;10.850;2023-05-09T10:38:22;6.60;;;5.70;;
19364;SDS011;9818;48.382;10.850;2023-05-09T10:40:51;7.83;;;7.03;;
19364;SDS011;9818;48.382;10.850;2023-05-09T10:43:24;7.53;;;6.50;;
19364;SDS011;9818;48.382;10.850;2023-05-09T10:45:54;8.57;;;6.60;;
19364;SDS011;9818;48.382;10.850;2023-05-09T10:48:23;6.93;;;6.23;;
19364;SDS011;9818;48.382;10.850;2023-05-09T10:50:52;6.93;;;6.00;;
19364;SDS011;9818;48.382;10.850;2023-05-09T10:53:22;7.60;;;6.17;;
19364;SDS011;9818;48.382;10.850;2023-05-09T10:55:52;6.70;;;6.00;;
19364;SDS011;9818;48.382;10.850;2023-05-09T10:58:27;6.70;;;6.00;;
19364;SDS011;9818;48.382;10.850;2023-05-09T11:00:58;6.57;;;5.83;;
19364;SDS011;9818;48.382;10.850;2023-05-09T11:03:28;6.13;;;5.40;;
19364;SDS011;9818;48.382;10.850;2023-05-09T11:09:26;5.87;;;5.20;;
19364;SDS011;9818;48.382;10.850;2023-05-09T11:11:59;6.53;;;5.47;;
19364;SDS011;9818;48.382;10.850;2023-05-09T11:14:41;6.37;;;5.33;;
19364;SDS011;9818;48.382;10.850;2023-05-09T11:17:11;6.10;;;5.33;;
19364;SDS011;9818;48.382;10.850;2023-05-09T11:19:57;6.33;;;5.67;;
19364;SDS011;9818;48.382;10.850;2023-05-09T11:22:28;6.20;;;5.60;;
19364;SDS011;9818;48.382;10.850;2023-05-09T11:25:01;6.07;;;5.27;;
19364;SDS011;9818;48.382;10.850;2023-05-09T11:27:41;5.77;;;5.00;;
19364;SDS011;9818;48.382;10.850;2023-05-09T11:30:14;6.10;;;5.27;;
19364;SDS011;9818;48.382;10.850;2023-05-09T11:32:45;5.67;;;5.07;;
19364;SDS011;9818;48.382;10.850;2023-05-09T11:35:18;5.77;;;5.17;;
19364;SDS011;9818;48.382;10.850;2023-05-09T11:37:48;5.97;;;5.27;;
19364;SDS011;9818;48.382;10.850;2023-05-09T11:40:20;5.33;;;4.83;;
19364;SDS011;9818;48.382;10.850;2023-05-09T11:42:50;6.20;;;5.13;;
19364;SDS011;9818;48.382;10.850;2023-05-09T11:45:23;5.53;;;5.03;;
19364;SDS011;9818;48.382;10.850;2023-05-09T11:47:54;5.30;;;4.80;;
19364;SDS011;9818;48.382;10.850;2023-05-09T11:50:24;6.07;;;5.53;;
19364;SDS011;9818;48.382;10.850;2023-05-09T11:52:53;5.77;;;5.17;;
19364;SDS011;9818;48.382;10.850;2023-05-09T11:55:22;5.77;;;5.17;;
19364;SDS011;9818;48.382;10.850;2023-05-09T11:57:54;5.07;;;4.63;;
19364;SDS011;9818;48.382;10.850;2023-05-09T12:00:25;5.43;;;4.53;;
19364;SDS011;9818;48.382;10.850;2023-05-09T12:02:54;5.30;;;4.70;;
19364;SDS011;9818;48.382;10.850;2023-05-09T12:05:23;5.73;;;5.03;;
19364;SDS011;9818;48.382;10.850;2023-05-09T12:07:52;6.03;;;5.17;;
19364;SDS011;9818;48.382;10.850;2023-05-09T12:10:21;5.03;;;4.40;;
19364;SDS011;9818;48.382;10.850;2023-05-09T12:12:50;5.43;;;4.93;;
19364;SDS011;9818;48.382;10.850;2023-05-09T12:15:21;5.27;;;4.77;;
19364;SDS011;9818;48.382;10.850;2023-05-09T12:18:02;5.50;;;5.00;;
19364;SDS011;9818;48.382;10.850;2023-05-09T12:20:41;5.10;;;4.60;;
19364;SDS011;9818;48.382;10.850;2023-05-09T12:23:10;5.37;;;4.67;;
19364;SDS011;9818;48.382;10.850;2023-05-09T12:25:46;5.20;;;4.70;;
19364;SDS011;9818;48.382;10.850;2023-05-09T12:28:15;4.93;;;4.47;;
19364;SDS011;9818;48.382;10.850;2023-05-09T12:30:44;5.13;;;4.63;;
19364;SDS011;9818;48.382;10.850;2023-05-09T12:33:15;5.30;;;4.40;;
19364;SDS011;9818;48.382;10.850;2023-05-09T12:35:45;4.60;;;4.20;;
19364;SDS011;9818;48.382;10.850;2023-05-09T12:38:19;5.23;;;4.73;;
19364;SDS011;9818;48.382;10.850;2023-05-09T12:40:48;5.07;;;4.57;;
19364;SDS011;9818;48.382;10.850;2023-05-09T12:43:28;5.30;;;4.70;;
19364;SDS011;9818;48.382;10.850;2023-05-09T12:45:58;5.50;;;4.87;;
19364;SDS011;9818;48.382;10.850;2023-05-09T12:48:35;5.23;;;4.33;;
19364;SDS011;9818;48.382;10.850;2023-05-09T12:51:05;5.17;;;4.60;;
19364;SDS011;9818;48.382;10.850;2023-05-09T12:53:36;5.00;;;4.50;;
19364;SDS011;9818;48.382;10.850;2023-05-09T12:56:10;4.70;;;4.30;;
19364;SDS011;9818;48.382;10.850;2023-05-09T12:58:46;4.50;;;4.10;;
19364;SDS011;9818;48.382;10.850;2023-05-09T13:01:15;5.00;;;4.50;;
19364;SDS011;9818;48.382;10.850;2023-05-09T13:03:49;4.97;;;4.47;;
19364;SDS011;9818;48.382;10.850;2023-05-09T13:06:18;4.67;;;4.27;;
19364;SDS011;9818;48.382;10.850;2023-05-09T13:08:55;4.77;;;4.33;;
19364;SDS011;9818;48.382;10.850;2023-05-09T13:11:25;4.33;;;3.93;;
19364;SDS011;9818;48.382;10.850;2023-05-09T13:13:54;5.17;;;4.67;;
19364;SDS011;9818;48.382;10.850;2023-05-09T13:16:23;4.90;;;4.40;;
19364;SDS011;9818;48.382;10.850;2023-05-09T13:18:54;5.07;;;4.20;;
19364;SDS011;9818;48.382;10.850;2023-05-09T13:21:22;5.33;;;4.77;;
19364;SDS011;9818;48.382;10.850;2023-05-09T13:23:51;4.93;;;4.50;;
19364;SDS011;9818;48.382;10.850;2023-05-09T13:26:20;4.80;;;4.30;;
19364;SDS011;9818;48.382;10.850;2023-05-09T13:28:49;4.97;;;4.30;;
19364;SDS011;9818;48.382;10.850;2023-05-09T13:31:18;5.00;;;4.43;;
19364;SDS011;9818;48.382;10.850;2023-05-09T13:33:47;5.43;;;4.20;;
19364;SDS011;9818;48.382;10.850;2023-05-09T13:36:18;5.20;;;4.70;;
19364;SDS011;9818;48.382;10.850;2023-05-09T13:38:47;5.03;;;4.27;;
19364;SDS011;9818;48.382;10.850;2023-05-09T13:41:15;4.90;;;4.37;;
19364;SDS011;9818;48.382;10.850;2023-05-09T13:43:48;4.67;;;4.23;;
19364;SDS011;9818;48.382;10.850;2023-05-09T13:46:17;4.50;;;4.10;;
19364;SDS011;9818;48.382;10.850;2023-05-09T13:48:45;4.57;;;4.10;;
19364;SDS011;9818;48.382;10.850;2023-05-09T13:51:14;5.03;;;4.43;;
19364;SDS011;9818;48.382;10.850;2023-05-09T13:53:48;4.43;;;3.77;;
19364;SDS011;9818;48.382;10.850;2023-05-09T13:56:17;4.27;;;3.87;;
19364;SDS011;9818;48.382;10.850;2023-05-09T13:58:45;4.47;;;3.93;;
19364;SDS011;9818;48.382;10.850;2023-05-09T14:01:14;5.63;;;4.20;;
19364;SDS011;9818;48.382;10.850;2023-05-09T14:03:42;4.80;;;4.17;;
19364;SDS011;9818;48.382;10.850;2023-05-09T14:06:13;4.20;;;3.80;;
19364;SDS011;9818;48.382;10.850;2023-05-09T14:08:41;4.43;;;4.03;;
19364;SDS011;9818;48.382;10.850;2023-05-09T14:11:13;4.27;;;3.87;;
19364;SDS011;9818;48.382;10.850;2023-05-09T14:13:41;4.13;;;3.73;;
19364;SDS011;9818;48.382;10.850;2023-05-09T14:16:10;4.70;;;3.93;;
19364;SDS011;9818;48.382;10.850;2023-05-09T14:18:39;4.03;;;3.73;;
19364;SDS011;9818;48.382;10.850;2023-05-09T14:21:07;4.57;;;4.00;;
19364;SDS011;9818;48.382;10.850;2023-05-09T14:23:36;4.67;;;4.10;;
19364;SDS011;9818;48.382;10.850;2023-05-09T14:26:05;4.20;;;3.77;;
19364;SDS011;9818;48.382;10.850;2023-05-09T14:28:36;5.80;;;4.67;;
19364;SDS011;9818;48.382;10.850;2023-05-09T14:31:05;5.47;;;4.17;;
19364;SDS011;9818;48.382;10.850;2023-05-09T14:33:33;4.97;;;3.90;;
19364;SDS011;9818;48.382;10.850;2023-05-09T14:36:02;5.87;;;4.97;;
19364;SDS011;9818;48.382;10.850;2023-05-09T14:38:32;4.97;;;4.30;;
19364;SDS011;9818;48.382;10.850;2023-05-09T14:41:01;6.57;;;4.87;;
19364;SDS011;9818;48.382;10.850;2023-05-09T14:43:31;5.20;;;4.60;;
19364;SDS011;9818;48.382;10.850;2023-05-09T14:46:02;6.13;;;4.00;;
19364;SDS011;9818;48.382;10.850;2023-05-09T14:48:31;4.30;;;3.90;;
19364;SDS011;9818;48.382;10.850;2023-05-09T14:50:59;5.17;;;4.40;;
19364;SDS011;9818;48.382;10.850;2023-05-09T14:53:28;4.43;;;4.00;;
19364;SDS011;9818;48.382;10.850;2023-05-09T14:55:59;4.50;;;4.10;;
19364;SDS011;9818;48.382;10.850;2023-05-09T14:58:28;4.23;;;3.80;;
19364;SDS011;9818;48.382;10.850;2023-05-09T15:00:58;4.30;;;3.90;;
19364;SDS011;9818;48.382;10.850;2023-05-09T15:03:29;4.27;;;3.87;;